Time;durP1;ratioP1;P1;durP2;ratioP2;P2;SDS_P1;SDS_P2;PMS_P1;PMS_P2;Temp;Humidity;BMP_temperature;BMP_pressure;BME280_temperature;BME280_humidity;BME280_pressure;Samples;Min_cycle;Max_cycle;Signal;HPM_P1;HPM_P2
2021/05/19 00:01:31;;;;;;;1.35;1.00;;;;;;;15.26;100.00;100568.53;4918786;29;20032;-74
2021/05/19 00:04:17;;;;;;;1.38;0.80;;;;;;;15.18;100.00;100572.41;4905177;29;20035;-76
2021/05/19 00:07:03;;;;;;;1.20;1.00;;;;;;;15.42;100.00;100566.19;4919199;29;20048;-75
2021/05/19 00:09:49;;;;;;;3.88;0.90;;;;;;;15.43;100.00;100568.75;4906081;29;20020;-74
2021/05/19 00:12:36;;;;;;;5.18;1.02;;;;;;;15.30;100.00;100567.50;4918966;29;20063;-75
2021/05/19 00:15:21;;;;;;;1.00;0.90;;;;;;;15.48;100.00;100563.31;4918595;29;20024;-75
2021/05/19 00:18:07;;;;;;;1.80;0.90;;;;;;;15.28;100.00;100565.84;4919232;29;20031;-75
2021/05/19 00:20:53;;;;;;;3.22;1.10;;;;;;;15.27;100.00;100572.88;4918793;29;20115;-75
2021/05/19 00:23:39;;;;;;;3.40;1.00;;;;;;;15.40;100.00;100576.81;4919440;29;20031;-75
2021/05/19 00:26:25;;;;;;;1.55;1.15;;;;;;;15.14;100.00;100573.44;4905789;29;20044;-75
2021/05/19 00:29:15;;;;;;;2.90;1.10;;;;;;;15.25;100.00;100579.16;4919136;29;20028;-75
2021/05/19 00:32:00;;;;;;;4.78;1.25;;;;;;;15.13;100.00;100583.13;4918502;29;20446;-74
2021/05/19 00:34:48;;;;;;;2.38;1.13;;;;;;;14.87;100.00;100592.94;4918887;29;20469;-75
2021/05/19 00:37:34;;;;;;;2.33;1.30;;;;;;;15.18;100.00;100586.44;4918585;29;20040;-75
2021/05/19 00:40:20;;;;;;;3.08;1.20;;;;;;;15.23;100.00;100588.91;4918350;29;20024;-75
2021/05/19 00:43:06;;;;;;;1.90;1.40;;;;;;;14.87;100.00;100593.78;4919177;29;20410;-75
2021/05/19 00:45:52;;;;;;;2.28;1.50;;;;;;;14.90;100.00;100606.03;4905303;29;20056;-75
2021/05/19 00:48:38;;;;;;;2.60;1.17;;;;;;;15.22;100.00;100597.78;4905934;29;20017;-75
2021/05/19 00:51:24;;;;;;;1.20;1.05;;;;;;;15.03;100.00;100602.00;4905520;29;20067;-75
2021/05/19 00:54:10;;;;;;;5.00;1.48;;;;;;;15.15;100.00;100607.66;4918174;29;20123;-74
2021/05/19 00:56:56;;;;;;;2.15;1.15;;;;;;;14.86;100.00;100601.78;4918318;29;20023;-75
2021/05/19 00:59:42;;;;;;;1.20;0.90;;;;;;;14.62;100.00;100614.91;4918238;29;20099;-75
2021/05/19 01:02:28;;;;;;;3.17;1.20;;;;;;;14.94;100.00;100607.63;4918276;29;20406;-75
2021/05/19 01:05:21;;;;;;;1.20;1.10;;;;;;;14.91;100.00;100605.09;4918965;29;20024;-75
2021/05/19 01:11:13;;;;;;;2.35;1.48;;;;;;;14.78;100.00;100610.81;4918185;29;20020;-74
2021/05/19 01:13:59;;;;;;;2.55;1.58;;;;;;;14.67;100.00;100609.50;4917862;29;20035;-74
2021/05/19 01:16:46;;;;;;;4.93;1.40;;;;;;;14.47;100.00;100611.97;4918465;29;20396;-75
2021/05/19 01:19:38;;;;;;;1.98;1.10;;;;;;;14.30;100.00;100612.53;4918099;29;20339;-75
2021/05/19 01:22:29;;;;;;;2.80;1.20;;;;;;;14.64;100.00;100609.59;4905026;29;20028;-75
2021/05/19 01:25:14;;;;;;;2.55;1.30;;;;;;;14.98;100.00;100614.53;4918062;29;20028;-74
2021/05/19 01:28:01;;;;;;;2.45;1.48;;;;;;;14.67;100.00;100614.78;4918124;29;20067;-75
2021/05/19 01:30:47;;;;;;;2.30;1.25;;;;;;;14.76;100.00;100602.09;4918075;29;20032;-74
2021/05/19 01:33:33;;;;;;;3.67;1.40;;;;;;;14.64;100.00;100614.88;4917720;29;20025;-75
2021/05/19 01:36:19;;;;;;;2.97;1.25;;;;;;;14.49;100.00;100599.59;4917972;29;20123;-74
2021/05/19 01:39:06;;;;;;;3.78;1.20;;;;;;;14.31;100.00;100611.63;4917522;29;20032;-74
2021/05/19 01:41:52;;;;;;;1.75;1.15;;;;;;;14.46;100.00;100615.50;4918184;29;20024;-74
2021/05/19 01:44:39;;;;;;;3.00;1.40;;;;;;;14.57;100.00;100611.59;4917645;29;20032;-75
2021/05/19 01:47:47;;;;;;;2.65;1.48;;;;;;;14.61;100.00;100613.22;4917307;29;20039;-74
2021/05/19 01:50:33;;;;;;;3.55;1.70;;;;;;;14.23;100.00;100608.38;4918410;29;20024;-74
2021/05/19 01:53:19;;;;;;;3.22;1.50;;;;;;;14.62;100.00;100611.41;4917505;29;20373;-75
2021/05/19 01:56:05;;;;;;;4.47;2.00;;;;;;;14.96;100.00;100616.34;4917688;29;20025;-74
2021/05/19 01:58:51;;;;;;;3.15;1.67;;;;;;;14.72;100.00;100608.38;4919821;29;20152;-75
2021/05/19 02:01:36;;;;;;;3.88;1.70;;;;;;;14.84;100.00;100602.66;4921286;29;20096;-74
2021/05/19 02:04:22;;;;;;;2.45;1.65;;;;;;;14.82;100.00;100607.16;4921404;29;20032;-75
2021/05/19 02:07:08;;;;;;;3.70;1.88;;;;;;;14.82;100.00;100614.19;4921392;29;20048;-75
2021/05/19 02:09:54;;;;;;;3.08;1.70;;;;;;;14.84;100.00;100618.50;4920551;29;20036;-75
2021/05/19 02:12:40;;;;;;;3.22;2.00;;;;;;;14.68;100.00;100619.13;4921351;29;20122;-75
2021/05/19 02:15:25;;;;;;;4.28;2.20;;;;;;;14.60;100.00;100629.91;4908192;29;20107;-75
2021/05/19 02:18:11;;;;;;;5.00;2.17;;;;;;;14.65;100.00;100627.13;4908683;29;20063;-75
2021/05/19 02:21:03;;;;;;;4.78;2.13;;;;;;;14.46;100.00;100621.66;4908179;29;20083;-76
2021/05/19 02:23:48;;;;;;;3.50;1.95;;;;;;;14.53;100.00;100622.28;4920920;29;20454;-75
2021/05/19 02:26:34;;;;;;;3.65;2.00;;;;;;;14.37;100.00;100621.09;4920885;29;20044;-75
2021/05/19 02:29:20;;;;;;;4.13;1.92;;;;;;;14.16;100.00;100625.28;4921423;29;20016;-75
2021/05/19 02:32:07;;;;;;;6.40;2.42;;;;;;;14.31;100.00;100632.72;4920759;29;20430;-75
2021/05/19 02:34:54;;;;;;;3.55;2.20;;;;;;;14.21;100.00;100628.69;4908168;29;20043;-74
2021/05/19 02:37:40;;;;;;;4.20;2.15;;;;;;;14.24;100.00;100625.91;4908017;29;20043;-74
2021/05/19 02:40:29;;;;;;;4.43;2.10;;;;;;;14.06;100.00;100629.16;4920591;29;20454;-74
2021/05/19 02:43:15;;;;;;;2.83;1.60;;;;;;;14.52;100.00;100634.59;4920759;29;20039;-75
2021/05/19 02:46:01;;;;;;;3.03;1.60;;;;;;;14.52;100.00;100631.97;4920513;29;20406;-75
2021/05/19 02:48:47;;;;;;;2.05;1.48;;;;;;;14.14;100.00;100634.16;4908072;29;20442;-74
2021/05/19 02:51:35;;;;;;;2.83;1.50;;;;;;;14.44;100.00;100633.16;4921881;29;20036;-75
2021/05/19 02:54:21;;;;;;;2.35;1.38;;;;;;;14.36;100.00;100643.09;4922469;29;20094;-75
2021/05/19 02:57:07;;;;;;;6.28;1.50;;;;;;;14.49;100.00;100649.66;4921255;29;20049;-75
2021/05/19 02:59:53;;;;;;;5.80;1.25;;;;;;;14.36;100.00;100648.38;4920800;29;20064;-76
2021/05/19 03:02:39;;;;;;;3.65;1.58;;;;;;;14.54;100.00;100651.25;4924247;29;20398;-76
2021/05/19 03:05:25;;;;;;;2.40;1.48;;;;;;;14.48;100.00;100651.44;4913649;29;20028;-74
2021/05/19 03:08:11;;;;;;;4.50;1.30;;;;;;;14.42;100.00;100648.16;4926063;29;20116;-74
2021/05/19 03:10:57;;;;;;;3.17;1.48;;;;;;;14.42;100.00;100645.50;4920651;29;20060;-75
2021/05/19 03:13:42;;;;;;;1.73;1.27;;;;;;;14.30;100.00;100656.47;4920477;29;20039;-75
2021/05/19 03:16:28;;;;;;;1.92;1.27;;;;;;;14.51;100.00;100659.25;4907149;29;20032;-75
2021/05/19 03:19:14;;;;;;;2.15;1.42;;;;;;;14.30;100.00;100667.88;4920180;29;20078;-75
2021/05/19 03:22:00;;;;;;;4.22;1.40;;;;;;;14.40;100.00;100669.28;4919970;29;20024;-75
2021/05/19 03:24:45;;;;;;;2.03;1.35;;;;;;;14.49;100.00;100669.00;4920188;29;20103;-75
2021/05/19 03:27:31;;;;;;;5.38;1.70;;;;;;;14.92;100.00;100667.50;4919724;29;20070;-75
2021/05/19 03:30:20;;;;;;;6.97;1.30;;;;;;;15.00;100.00;100673.34;4919919;29;20025;-76
2021/05/19 03:33:06;;;;;;;1.35;1.20;;;;;;;15.05;100.00;100674.03;4906845;29;20032;-75
2021/05/19 03:35:52;;;;;;;4.05;1.30;;;;;;;14.82;100.00;100676.66;4906928;29;20450;-77
2021/05/19 03:38:38;;;;;;;1.45;1.00;;;;;;;14.95;100.00;100675.31;4919992;29;20119;-76
2021/05/19 03:41:24;;;;;;;4.03;1.42;;;;;;;15.01;100.00;100672.44;4919879;29;20044;-75
2021/05/19 03:44:10;;;;;;;2.10;1.30;;;;;;;14.79;100.00;100674.97;4906538;29;20024;-75
2021/05/19 03:46:56;;;;;;;2.15;1.23;;;;;;;14.56;100.00;100667.84;4919582;29;20066;-75
2021/05/19 03:49:42;;;;;;;2.97;1.20;;;;;;;14.58;100.00;100679.22;4906775;29;20055;-75
2021/05/19 03:52:31;;;;;;;2.70;1.23;;;;;;;14.66;100.00;100676.31;4919803;29;20024;-75
2021/05/19 03:55:17;;;;;;;2.33;1.33;;;;;;;14.33;100.00;100674.81;4919886;29;20178;-74
2021/05/19 03:58:03;;;;;;;2.25;1.23;;;;;;;14.36;100.00;100680.00;4919424;29;20027;-75
2021/05/19 04:00:49;;;;;;;1.70;1.40;;;;;;;14.41;100.00;100676.31;4919629;29;20442;-76
2021/05/19 04:03:35;;;;;;;3.17;1.30;;;;;;;14.71;100.00;100674.41;4919070;29;20032;-74
2021/05/19 04:06:24;;;;;;;2.63;1.30;;;;;;;15.02;100.00;100668.91;4906309;29;20075;-75
2021/05/19 04:09:11;;;;;;;1.50;1.15;;;;;;;14.97;100.00;100669.03;4918647;29;20056;-75
2021/05/19 04:11:57;;;;;;;1.80;1.30;;;;;;;14.88;100.00;100672.03;4919135;29;20122;-76
2021/05/19 04:14:43;;;;;;;3.83;1.55;;;;;;;15.09;100.00;100673.00;4906244;29;20446;-76
2021/05/19 04:17:29;;;;;;;2.03;1.10;;;;;;;15.11;100.00;100681.75;4906748;29;20099;-75
2021/05/19 04:20:15;;;;;;;2.83;1.48;;;;;;;15.21;100.00;100677.84;4918718;29;20034;-75
2021/05/19 04:23:01;;;;;;;2.85;1.20;;;;;;;14.76;100.00;100669.81;4918815;29;20027;-76
2021/05/19 04:25:47;;;;;;;1.92;1.50;;;;;;;15.02;100.00;100687.38;4906085;29;20342;-76
2021/05/19 04:28:33;;;;;;;2.13;1.38;;;;;;;15.05;100.00;100685.47;4918526;29;20036;-76
2021/05/19 04:31:19;;;;;;;5.70;1.25;;;;;;;14.82;100.00;100692.47;4906161;29;20450;-75
2021/05/19 04:34:05;;;;;;;3.40;1.50;;;;;;;14.73;100.00;100704.19;4919410;29;20055;-76
2021/05/19 04:36:51;;;;;;;3.42;1.30;;;;;;;15.02;100.00;100713.75;4919183;29;20062;-76
2021/05/19 04:39:37;;;;;;;3.45;1.33;;;;;;;14.84;100.00;100696.78;4918389;29;20355;-75
2021/05/19 04:42:22;;;;;;;3.13;1.50;;;;;;;14.82;100.00;100698.59;4918278;29;20028;-75
2021/05/19 04:45:09;;;;;;;3.20;1.50;;;;;;;15.03;100.00;100708.38;4905634;29;20457;-75
2021/05/19 04:47:55;;;;;;;4.18;1.50;;;;;;;15.15;100.00;100702.66;4905419;29;20040;-77
2021/05/19 04:50:41;;;;;;;3.05;1.48;;;;;;;15.45;100.00;100706.00;4905444;29;20028;-75
2021/05/19 04:53:27;;;;;;;1.90;1.40;;;;;;;15.60;100.00;100706.31;4905487;29;20461;-75
2021/05/19 04:56:13;;;;;;;2.67;1.50;;;;;;;15.39;100.00;100703.59;4918269;29;20091;-77
2021/05/19 04:58:58;;;;;;;3.58;1.27;;;;;;;15.79;100.00;100709.09;4918487;29;20444;-75
2021/05/19 05:01:44;;;;;;;5.43;1.42;;;;;;;16.08;100.00;100704.38;4918019;29;20107;-76
2021/05/19 05:04:31;;;;;;;1.45;1.33;;;;;;;15.91;100.00;100711.25;4905527;29;20127;-76
2021/05/19 05:07:16;;;;;;;2.83;1.38;;;;;;;16.19;100.00;100711.88;4918199;29;20137;-76
2021/05/19 05:10:05;;;;;;;1.40;1.20;;;;;;;16.26;100.00;100710.69;4917292;29;20036;-76
2021/05/19 05:12:50;;;;;;;2.22;1.10;;;;;;;16.26;100.00;100710.69;4905402;29;20032;-76
2021/05/19 05:15:36;;;;;;;1.73;1.20;;;;;;;16.49;100.00;100710.66;4917761;29;20071;-75
2021/05/19 05:18:22;;;;;;;2.30;1.20;;;;;;;16.81;100.00;100699.56;4918195;29;20055;-76
2021/05/19 05:21:09;;;;;;;2.25;1.50;;;;;;;16.80;100.00;100717.22;4918019;29;20063;-76
2021/05/19 05:23:55;;;;;;;3.58;1.23;;;;;;;16.82;100.00;100714.50;4918209;29;20458;-76
2021/05/19 05:26:41;;;;;;;2.58;1.40;;;;;;;17.03;100.00;100716.22;4917903;29;20028;-76
2021/05/19 05:29:26;;;;;;;1.80;1.00;;;;;;;17.24;100.00;100713.50;4904893;29;20463;-76
2021/05/19 05:32:12;;;;;;;2.75;1.10;;;;;;;17.07;100.00;100713.38;4904712;29;20021;-76
2021/05/19 05:34:58;;;;;;;5.13;1.40;;;;;;;17.32;100.00;100716.66;4917642;29;20071;-76
2021/05/19 05:37:44;;;;;;;1.77;1.30;;;;;;;17.39;100.00;100720.75;4904844;29;20040;-75
2021/05/19 05:40:30;;;;;;;3.20;1.10;;;;;;;17.52;100.00;100718.47;4917381;29;20422;-77
2021/05/19 05:43:16;;;;;;;1.20;1.00;;;;;;;17.68;100.00;100714.19;4917972;29;20028;-76
2021/05/19 05:46:02;;;;;;;1.40;0.90;;;;;;;17.68;100.00;100720.31;4917331;29;20485;-77
2021/05/19 05:48:48;;;;;;;2.65;1.08;;;;;;;17.93;100.00;100720.88;4918634;29;20096;-75
2021/05/19 05:51:34;;;;;;;2.83;1.13;;;;;;;17.93;100.00;100725.34;4917478;29;20028;-76
2021/05/19 05:54:20;;;;;;;4.10;1.10;;;;;;;18.03;100.00;100727.47;4917618;29;20028;-77
2021/05/19 05:57:07;;;;;;;2.58;1.00;;;;;;;18.12;100.00;100727.03;4917645;29;20038;-75
2021/05/19 05:59:53;;;;;;;5.03;1.00;;;;;;;17.90;100.00;100730.78;4904290;29;20433;-76
2021/05/19 06:02:39;;;;;;;2.47;1.00;;;;;;;17.97;100.00;100726.91;4917354;29;20461;-76
2021/05/19 06:05:25;;;;;;;2.58;1.00;;;;;;;18.13;100.00;100722.59;4917724;29;20406;-76
2021/05/19 06:08:11;;;;;;;2.58;0.93;;;;;;;18.26;100.00;100735.19;4917061;29;20470;-76
2021/05/19 06:10:58;;;;;;;1.95;1.10;;;;;;;18.58;100.00;100733.63;4917877;29;20345;-76
2021/05/19 06:13:44;;;;;;;1.73;1.05;;;;;;;18.68;100.00;100733.09;4917626;29;20115;-76
2021/05/19 06:16:29;;;;;;;2.28;0.90;;;;;;;18.60;100.00;100742.38;4917397;29;20024;-76
2021/05/19 06:19:15;;;;;;;2.50;1.02;;;;;;;18.68;100.00;100735.75;4904289;29;20509;-77
2021/05/19 06:22:01;;;;;;;3.38;1.10;;;;;;;18.70;100.00;100736.53;4916923;29;20024;-77
2021/05/19 06:24:47;;;;;;;3.58;0.90;;;;;;;18.97;100.00;100742.25;4903056;29;20038;-77
2021/05/19 06:27:33;;;;;;;2.47;0.80;;;;;;;19.01;100.00;100741.16;4905294;29;20067;-76
2021/05/19 06:30:19;;;;;;;3.08;1.45;;;;;;;19.13;100.00;100749.34;4918076;29;20020;-76
2021/05/19 06:33:05;;;;;;;3.33;0.95;;;;;;;19.32;100.00;100741.28;4917077;29;20035;-76
2021/05/19 06:35:51;;;;;;;2.05;0.80;;;;;;;19.50;100.00;100744.78;4916961;29;20059;-77
2021/05/19 06:38:37;;;;;;;2.50;1.00;;;;;;;19.28;100.00;100742.38;4903532;29;20024;-78
2021/05/19 06:41:22;;;;;;;2.38;0.75;;;;;;;19.45;100.00;100742.34;4917130;29;20458;-76
2021/05/19 06:44:09;;;;;;;3.65;0.90;;;;;;;19.42;100.00;100739.88;4904468;29;20043;-76
2021/05/19 06:46:55;;;;;;;2.90;0.80;;;;;;;19.44;100.00;100737.16;4921249;29;20477;-77
2021/05/19 06:49:42;;;;;;;1.80;1.10;;;;;;;19.58;100.00;100734.59;4907951;29;20362;-76
2021/05/19 06:52:29;;;;;;;2.28;1.20;;;;;;;19.85;100.00;100731.28;4921013;29;20036;-76
2021/05/19 06:55:16;;;;;;;2.55;1.30;;;;;;;19.97;100.00;100724.44;4920334;29;20088;-77
2021/05/19 06:58:02;;;;;;;1.88;0.93;;;;;;;20.06;100.00;100723.91;4920673;29;20091;-76
2021/05/19 07:00:48;;;;;;;3.58;1.10;;;;;;;20.11;100.00;100730.72;4907288;29;20043;-76
2021/05/19 07:03:33;;;;;;;3.22;1.05;;;;;;;20.17;100.00;100727.72;4920286;29;20092;-76
2021/05/19 07:06:20;;;;;;;2.50;0.80;;;;;;;19.98;100.00;100727.03;4907599;29;20511;-77
2021/05/19 07:09:06;;;;;;;2.35;1.08;;;;;;;20.21;100.00;100728.41;4919820;29;20052;-76
2021/05/19 07:11:53;;;;;;;2.47;0.93;;;;;;;20.57;99.50;100727.16;4920730;29;20055;-76
2021/05/19 07:14:51;;;;;;;1.60;1.00;;;;;;;20.77;100.00;100715.34;4907314;29;20493;-75
2021/05/19 07:17:37;;;;;;;1.05;0.93;;;;;;;20.54;96.84;100711.34;4920189;29;20043;-76
2021/05/19 07:20:23;;;;;;;2.15;0.95;;;;;;;20.77;96.41;100705.53;4920470;29;20465;-76
2021/05/19 07:23:13;;;;;;;2.30;0.93;;;;;;;20.88;93.50;100711.09;4920060;29;20036;-76
2021/05/19 07:25:58;;;;;;;3.10;0.93;;;;;;;21.20;89.52;100711.81;4920793;29;20461;-76
2021/05/19 07:28:44;;;;;;;1.10;0.90;;;;;;;21.65;82.90;100707.19;4919908;29;20027;-76
2021/05/19 07:31:31;;;;;;;1.83;0.95;;;;;;;21.64;82.40;100702.81;4906964;29;20107;-77
2021/05/19 07:34:17;;;;;;;3.72;0.85;;;;;;;21.55;84.91;100724.72;4907083;29;20111;-76
2021/05/19 07:37:03;;;;;;;1.17;0.85;;;;;;;21.50;79.33;100723.28;4906761;29;20032;-77
2021/05/19 07:39:49;;;;;;;1.13;0.88;;;;;;;21.65;79.00;100722.31;4919487;29;20042;-77
2021/05/19 07:42:35;;;;;;;2.65;0.70;;;;;;;22.12;78.95;100717.50;4921834;29;20131;-75
2021/05/19 07:45:21;;;;;;;3.17;1.10;;;;;;;21.90;81.81;100718.03;4921488;29;20027;-78
2021/05/19 07:48:07;;;;;;;2.20;1.08;;;;;;;22.22;74.79;100722.16;4908422;29;20059;-76
2021/05/19 07:50:55;;;;;;;1.42;0.80;;;;;;;22.08;73.66;100724.00;4919670;29;20028;-77
2021/05/19 07:53:44;;;;;;;3.22;0.93;;;;;;;22.18;75.06;100720.63;4908135;29;20032;-76
2021/05/19 07:56:36;;;;;;;0.70;0.60;;;;;;;22.40;72.82;100726.31;4909153;29;20442;-75
2021/05/19 07:59:25;;;;;;;3.78;0.88;;;;;;;22.33;73.65;100727.66;4908607;29;20059;-76
2021/05/19 08:02:16;;;;;;;2.08;0.80;;;;;;;22.47;70.46;100722.28;4919731;29;20108;-77
2021/05/19 08:05:01;;;;;;;1.63;1.00;;;;;;;22.57;71.63;100736.75;4907247;29;20036;-77
2021/05/19 08:07:47;;;;;;;3.63;0.80;;;;;;;22.87;68.02;100725.81;4906166;29;20130;-77
2021/05/19 08:10:33;;;;;;;1.77;0.73;;;;;;;22.96;68.89;100731.41;4919377;29;20024;-76
2021/05/19 08:13:19;;;;;;;0.80;0.80;;;;;;;23.11;65.65;100725.00;4918825;29;20075;-76
2021/05/19 08:16:06;;;;;;;2.55;0.80;;;;;;;23.54;64.76;100719.38;4905917;29;20136;-76
2021/05/19 08:18:52;;;;;;;1.33;0.80;;;;;;;23.48;61.91;100723.34;4918777;29;20042;-76
2021/05/19 08:21:38;;;;;;;2.00;0.90;;;;;;;23.95;63.11;100723.47;4918783;29;20051;-75
2021/05/19 08:24:24;;;;;;;1.60;1.08;;;;;;;23.70;60.00;100730.69;4906244;29;20039;-75
2021/05/19 08:27:11;;;;;;;1.85;1.00;;;;;;;24.29;59.15;100727.25;4905799;29;20023;-75
2021/05/19 08:29:56;;;;;;;3.67;1.27;;;;;;;23.92;57.68;100717.50;4918607;29;20055;-76
2021/05/19 08:32:42;;;;;;;1.30;0.98;;;;;;;24.01;58.42;100719.50;4905809;29;20434;-76
2021/05/19 08:35:28;;;;;;;2.88;1.05;;;;;;;24.12;59.30;100720.47;4919048;29;20032;-75
2021/05/19 08:38:14;;;;;;;2.25;1.30;;;;;;;24.17;59.49;100726.31;4918792;29;20046;-76
2021/05/19 08:41:05;;;;;;;1.98;0.93;;;;;;;24.47;60.09;100716.00;4918938;29;20072;-76
2021/05/19 08:43:51;;;;;;;3.47;0.90;;;;;;;24.35;60.58;100719.59;4918372;29;20024;-76
2021/05/19 08:46:43;;;;;;;2.88;0.70;;;;;;;24.27;54.75;100721.16;4906026;29;20080;-75
2021/05/19 08:49:29;;;;;;;2.22;0.70;;;;;;;24.22;51.92;100717.97;4917693;29;20476;-75
2021/05/19 08:52:17;;;;;;;1.67;0.75;;;;;;;24.47;51.20;100716.00;4918127;29;20062;-76
2021/05/19 08:55:11;;;;;;;2.22;0.88;;;;;;;24.26;54.03;100714.09;4918103;29;20477;-77
2021/05/19 08:57:57;;;;;;;2.88;0.80;;;;;;;24.05;53.93;100715.66;4918070;29;20055;-76
2021/05/19 09:00:43;;;;;;;2.33;0.90;;;;;;;24.62;53.68;100714.03;4918146;29;20409;-76
2021/05/19 09:03:33;;;;;;;1.52;0.90;;;;;;;24.55;52.31;100710.94;4917895;29;20055;-76
2021/05/19 09:06:26;;;;;;;0.90;0.75;;;;;;;24.97;50.98;100717.59;4905311;29;20036;-76
2021/05/19 09:09:30;;;;;;;4.15;0.90;;;;;;;24.87;50.64;100713.91;4917301;29;20145;-76
2021/05/19 09:12:16;;;;;;;2.65;1.08;;;;;;;24.40;52.26;100713.91;4917964;29;20046;-77
2021/05/19 09:15:04;;;;;;;2.10;0.88;;;;;;;24.38;52.94;100700.63;4905017;29;20032;-77
2021/05/19 09:17:57;;;;;;;2.22;0.90;;;;;;;25.09;52.28;100689.81;4904858;29;20458;-76
2021/05/19 09:20:53;;;;;;;1.80;0.77;;;;;;;25.61;51.83;100699.06;4917739;29;20036;-76
2021/05/19 09:23:51;;;;;;;1.10;0.80;;;;;;;25.50;51.58;100693.69;4917697;29;20040;-76
2021/05/19 09:27:00;;;;;;;1.75;0.80;;;;;;;25.40;53.79;100700.75;4904933;29;20509;-75
2021/05/19 09:29:51;;;;;;;3.28;1.00;;;;;;;25.20;49.84;100703.25;4917721;29;20504;-76
2021/05/19 09:32:39;;;;;;;2.65;0.80;;;;;;;25.05;50.04;100702.63;4905028;29;20032;-75
2021/05/19 09:35:25;;;;;;;2.15;0.70;;;;;;;24.81;51.61;100703.63;4917733;29;20040;-74
2021/05/19 09:41:37;;;;;;;1.05;0.90;;;;;;;25.30;50.26;100691.72;4918111;29;20032;-74
2021/05/19 09:44:25;;;;;;;2.15;0.80;;;;;;;24.91;51.09;100681.38;4919275;29;20028;-74
2021/05/19 09:47:12;;;;;;;2.47;0.90;;;;;;;25.24;50.31;100688.63;4918748;29;20115;-73
2021/05/19 09:49:58;;;;;;;1.38;0.90;;;;;;;25.02;49.67;100689.44;4917516;29;20039;-73
2021/05/19 09:53:03;;;;;;;1.38;1.08;;;;;;;25.19;46.90;100688.16;4905170;29;20060;-74
2021/05/19 09:55:51;;;;;;;1.95;0.70;;;;;;;24.99;46.35;100687.00;4918111;29;20130;-74
2021/05/19 09:58:40;;;;;;;3.17;0.90;;;;;;;25.77;45.60;100679.88;4917366;29;20020;-74
2021/05/19 10:01:26;;;;;;;1.20;0.80;;;;;;;25.65;45.22;100678.19;4917483;29;20032;-75
2021/05/19 10:04:12;;;;;;;1.48;0.80;;;;;;;25.60;45.38;100669.66;4917325;29;20434;-74
2021/05/19 10:06:58;;;;;;;2.13;0.60;;;;;;;25.24;46.25;100667.19;4916913;29;20099;-73
2021/05/19 10:09:43;;;;;;;1.00;0.70;;;;;;;25.17;47.97;100657.91;4917322;29;20028;-73
2021/05/19 10:12:30;;;;;;;2.13;0.80;;;;;;;25.59;46.75;100662.59;4904752;29;20038;-74
2021/05/19 10:15:22;;;;;;;1.23;0.68;;;;;;;25.22;46.29;100661.06;4904516;29;20111;-74
2021/05/19 10:18:17;;;;;;;2.28;0.90;;;;;;;25.31;46.29;100669.28;4917627;29;20468;-76
2021/05/19 10:21:04;;;;;;;1.98;0.88;;;;;;;25.15;46.92;100662.53;4920898;29;20028;-76
2021/05/19 10:24:10;;;;;;;1.48;0.80;;;;;;;25.25;46.28;100666.19;4907274;29;20445;-76
2021/05/19 10:27:02;;;;;;;0.82;0.70;;;;;;;25.32;46.64;100654.06;4921433;29;20047;-76
2021/05/19 10:29:48;;;;;;;1.30;0.73;;;;;;;25.15;48.19;100657.19;4921457;29;20369;-76
2021/05/19 10:32:36;;;;;;;1.48;0.90;;;;;;;25.30;47.16;100647.94;4907898;29;20418;-76
2021/05/19 10:35:29;;;;;;;1.05;0.73;;;;;;;25.05;46.59;100650.81;4908324;29;20131;-76
2021/05/19 10:38:25;;;;;;;2.35;1.00;;;;;;;25.12;47.33;100644.84;4920977;29;20338;-77
2021/05/19 10:41:11;;;;;;;3.60;0.93;;;;;;;25.72;46.35;100649.88;4908014;29;20028;-74
2021/05/19 10:44:05;;;;;;;1.20;0.90;;;;;;;25.61;46.53;100633.78;4907963;29;20051;-76
2021/05/19 10:50:00;;;;;;;2.17;0.85;;;;;;;25.20;48.42;100636.22;4921323;29;20488;-74
2021/05/19 11:00:12;;;;;;;4.45;1.05;;;;;;;25.65;46.60;100616.47;4904980;29;20032;-74
2021/05/19 11:03:02;;;;;;;1.15;0.82;;;;;;;25.52;46.24;100619.28;4920380;29;20042;-74
2021/05/19 11:05:54;;;;;;;3.13;0.60;;;;;;;25.39;46.72;100628.44;4921092;29;20087;-76
2021/05/19 11:08:41;;;;;;;1.75;0.70;;;;;;;25.26;45.68;100615.13;4921061;29;20077;-75
2021/05/19 11:11:39;;;;;;;1.25;0.60;;;;;;;25.71;45.56;100606.06;4920378;29;20031;-74
2021/05/19 11:14:42;;;;;;;3.13;0.60;;;;;;;25.68;44.46;100605.50;4908333;29;20068;-77
2021/05/19 11:20:26;;;;;;;1.48;0.60;;;;;;;25.66;41.99;100602.06;4922138;29;20099;-77
2021/05/19 11:23:13;;;;;;;3.45;0.77;;;;;;;25.92;42.34;100598.09;4921202;29;20536;-77
2021/05/19 11:26:09;;;;;;;0.77;0.60;;;;;;;26.15;43.75;100603.28;4920527;29;20107;-77
2021/05/19 11:28:56;;;;;;;0.90;0.60;;;;;;;26.17;40.52;100605.84;4920205;29;20032;-77
2021/05/19 11:31:44;;;;;;;0.90;0.70;;;;;;;25.58;41.96;100608.06;4918962;29;20107;-78
2021/05/19 11:34:33;;;;;;;2.20;0.88;;;;;;;25.63;41.96;100596.97;4920097;29;20123;-78
2021/05/19 11:37:20;;;;;;;1.75;0.77;;;;;;;25.72;42.11;100591.66;4920001;29;20039;-77
2021/05/19 11:40:06;;;;;;;1.88;0.85;;;;;;;25.81;40.21;100592.75;4919250;29;20031;-77
2021/05/19 11:42:57;;;;;;;2.72;1.40;;;;;;;25.96;41.04;100597.75;4919853;29;20119;-76
2021/05/19 11:45:44;;;;;;;2.70;1.70;;;;;;;26.17;40.70;100597.81;4919677;29;20131;-75
2021/05/19 11:48:33;;;;;;;3.05;0.88;;;;;;;26.61;39.62;100598.44;4907328;29;20047;-76
2021/05/19 11:52:16;;;;;;;3.03;0.85;;;;;;;26.53;38.74;100584.78;4921393;29;20418;-77
2021/05/19 11:58:34;;;;;;;2.03;0.90;;;;;;;27.05;38.62;100578.50;4917488;29;20050;-77
2021/05/19 12:01:22;;;;;;;0.98;0.90;;;;;;;27.01;37.51;100575.19;4919622;29;20032;-78
2021/05/19 12:04:17;;;;;;;3.28;0.90;;;;;;;26.96;36.27;100574.75;4919438;29;20422;-77
2021/05/19 12:07:05;;;;;;;0.90;0.70;;;;;;;26.96;36.68;100572.06;4906151;29;20051;-75
2021/05/19 12:09:51;;;;;;;2.20;0.77;;;;;;;26.73;36.85;100558.94;4918822;29;20032;-75
2021/05/19 12:12:37;;;;;;;4.30;1.40;;;;;;;26.34;38.08;100563.16;4918830;29;20078;-75
2021/05/19 12:15:22;;;;;;;4.07;2.38;;;;;;;26.31;36.23;100560.72;4906003;29;20035;-75
2021/05/19 12:18:09;;;;;;;1.85;0.60;;;;;;;26.50;37.59;100557.31;4904584;29;20032;-75
2021/05/19 12:20:55;;;;;;;1.35;0.80;;;;;;;27.02;36.71;100549.16;4919047;29;20028;-76
2021/05/19 12:23:41;;;;;;;4.25;0.80;;;;;;;27.09;37.61;100556.53;4904775;29;20032;-76
2021/05/19 12:26:27;;;;;;;6.80;0.85;;;;;;;27.26;35.62;100549.72;4918921;29;20024;-75
2021/05/19 12:29:36;;;;;;;1.00;0.73;;;;;;;27.67;35.77;100543.28;4906035;29;20039;-75
2021/05/19 12:32:24;;;;;;;1.05;0.55;;;;;;;27.57;35.51;100545.13;4919012;29;20059;-75
2021/05/19 12:35:15;;;;;;;3.85;0.95;;;;;;;27.92;35.75;100538.25;4918821;29;20453;-75
2021/05/19 12:38:08;;;;;;;2.30;0.60;;;;;;;27.63;36.22;100531.94;4919524;29;20114;-75
2021/05/19 12:40:55;;;;;;;2.38;0.70;;;;;;;27.62;35.60;100524.00;4918724;29;20438;-75
2021/05/19 12:43:41;;;;;;;2.08;1.70;;;;;;;27.12;35.97;100518.63;4918244;29;20043;-75
2021/05/19 12:46:26;;;;;;;2.28;1.23;;;;;;;27.10;37.16;100517.06;4905590;29;20021;-74
2021/05/19 12:49:13;;;;;;;1.48;1.13;;;;;;;27.27;36.83;100511.91;4905391;29;20123;-75
2021/05/19 12:52:04;;;;;;;1.60;0.80;;;;;;;27.03;36.16;100514.06;4905677;29;20039;-75
2021/05/19 12:54:52;;;;;;;1.33;0.85;;;;;;;27.33;34.97;100503.28;4905368;29;20032;-76
2021/05/19 12:57:38;;;;;;;0.80;0.80;;;;;;;27.06;34.34;100504.88;4918308;29;20099;-75
2021/05/19 13:00:24;;;;;;;2.45;0.65;;;;;;;27.15;33.19;100499.53;4918601;29;20446;-75
2021/05/19 13:03:11;;;;;;;1.00;0.73;;;;;;;27.00;34.17;100503.56;4918627;29;20059;-74
2021/05/19 13:06:02;;;;;;;1.17;0.80;;;;;;;27.08;34.29;100501.06;4906062;29;20074;-75
2021/05/19 13:08:59;;;;;;;1.95;1.00;;;;;;;27.36;34.88;100489.56;4905280;29;20052;-75
2021/05/19 13:11:55;;;;;;;1.35;0.75;;;;;;;27.42;34.28;100491.72;4918460;29;20032;-75
2021/05/19 13:14:48;;;;;;;0.82;0.60;;;;;;;27.02;31.10;100485.47;4918361;29;20028;-74
2021/05/19 13:17:44;;;;;;;4.60;1.08;;;;;;;26.85;33.14;100485.25;4919377;29;20039;-77
2021/05/19 13:20:31;;;;;;;1.65;1.13;;;;;;;27.15;34.14;100488.78;4917575;29;20500;-77